Time;durP1;ratioP1;P1;durP2;ratioP2;P2;SDS_P1;SDS_P2;PMS_P1;PMS_P2;Temp;Humidity;BMP_temperature;BMP_pressure;BME280_temperature;BME280_humidity;BME280_pressure;Samples;Min_cycle;Max_cycle;Signal;HPM_P1;HPM_P2
2022/10/22 00:00:43;;;;;;;7.85;2.95;;;13.90;92.60;;;;;;5090522;28;20047;-67
2022/10/22 00:03:10;;;;;;;8.20;2.88;;;13.90;92.60;;;;;;5091210;28;20040;-67
2022/10/22 00:05:38;;;;;;;7.00;2.72;;;13.90;92.60;;;;;;5094312;28;20055;-68
2022/10/22 00:08:08;;;;;;;8.30;2.80;;;13.90;92.60;;;;;;5086289;28;20063;-66
2022/10/22 00:10:39;;;;;;;5.95;2.92;;;13.90;92.60;;;;;;5091054;28;20040;-67
2022/10/22 00:13:05;;;;;;;8.10;3.00;;;13.90;92.60;;;;;;5091154;28;20039;-67
2022/10/22 00:15:33;;;;;;;6.28;3.20;;;13.90;92.70;;;;;;5092029;28;20058;-67
2022/10/22 00:18:24;;;;;;;9.50;3.50;;;13.90;92.60;;;;;;5091998;28;20127;-67
2022/10/22 00:21:27;;;;;;;;;;;;;;;;;;;;;
2022/10/22 00:27:12;;;;;;;8.55;3.30;;;13.90;92.70;;;;;;5092718;28;20051;-67
2022/10/22 00:29:39;;;;;;;8.70;3.28;;;13.90;92.70;;;;;;5094967;28;20067;-66
2022/10/22 00:32:07;;;;;;;8.52;3.05;;;13.90;92.60;;;;;;5095444;28;20047;-67
2022/10/22 00:34:36;;;;;;;6.55;3.15;;;14.00;92.60;;;;;;5087906;28;161061;-67
2022/10/22 00:37:03;;;;;;;6.03;2.90;;;13.90;92.70;;;;;;5091468;28;20049;-66
2022/10/22 00:39:33;;;;;;;6.90;2.60;;;13.90;92.80;;;;;;5105505;28;20046;-67
2022/10/22 00:42:00;;;;;;;6.32;3.15;;;13.90;92.80;;;;;;5117307;28;20046;-70
2022/10/22 00:45:00;;;;;;;5.65;2.95;;;13.90;92.80;;;;;;5091085;28;20040;-68
2022/10/22 00:47:34;;;;;;;5.13;2.72;;;13.90;92.80;;;;;;5086079;28;20074;-65
2022/10/22 00:50:04;;;;;;;6.50;3.28;;;13.90;92.80;;;;;;5095070;28;20550;-68
2022/10/22 00:52:32;;;;;;;5.40;2.72;;;14.00;92.50;;;;;;5093635;28;20051;-68
2022/10/22 00:55:00;;;;;;;7.75;3.08;;;14.00;92.70;;;;;;5087696;28;20047;-67
2022/10/22 00:57:28;;;;;;;5.88;2.85;;;14.00;92.80;;;;;;5093195;28;20539;-67
2022/10/22 00:59:57;;;;;;;6.40;2.70;;;13.90;92.80;;;;;;5094702;28;20043;-67
2022/10/22 01:02:24;;;;;;;5.03;2.10;;;13.90;92.40;;;;;;5080920;28;20088;-67
2022/10/22 01:04:51;;;;;;;7.85;2.60;;;13.90;92.20;;;;;;5090888;28;20047;-68
2022/10/22 01:07:22;;;;;;;5.90;2.70;;;14.00;92.30;;;;;;5091815;28;20048;-67
2022/10/22 01:10:00;;;;;;;6.22;2.80;;;14.00;92.30;;;;;;5095154;28;20040;-67
2022/10/22 01:12:43;;;;;;;6.60;3.00;;;14.00;92.50;;;;;;5092572;28;20052;-67
2022/10/22 01:15:18;;;;;;;4.75;2.72;;;14.00;92.60;;;;;;5095176;28;20044;-67
2022/10/22 01:17:55;;;;;;;6.00;2.55;;;14.00;92.70;;;;;;5092506;28;20051;-67
2022/10/22 01:20:47;;;;;;;6.75;3.05;;;13.90;92.80;;;;;;5094223;28;20047;-67
2022/10/22 01:23:30;;;;;;;7.28;2.40;;;13.90;92.80;;;;;;5089322;28;20052;-67
2022/10/22 01:26:04;;;;;;;6.35;2.42;;;13.90;92.80;;;;;;5091960;28;20537;-67
2022/10/22 01:28:55;;;;;;;4.15;2.47;;;14.00;92.80;;;;;;5087777;28;20040;-67
2022/10/22 01:31:24;;;;;;;5.40;2.65;;;14.00;92.90;;;;;;5091591;28;20615;-66
2022/10/22 01:33:54;;;;;;;6.55;2.88;;;13.90;93.00;;;;;;5090945;28;20052;-68
2022/10/22 01:36:22;;;;;;;6.93;3.20;;;13.90;92.90;;;;;;5086225;28;20052;-67
2022/10/22 01:38:51;;;;;;;6.05;2.88;;;13.90;92.70;;;;;;5093348;28;20041;-66
2022/10/22 01:41:18;;;;;;;8.68;3.03;;;14.00;92.80;;;;;;5092864;28;20044;-67
2022/10/22 01:43:47;;;;;;;4.63;2.60;;;14.00;92.80;;;;;;5095593;28;20124;-66
2022/10/22 01:46:15;;;;;;;6.93;3.00;;;14.00;92.60;;;;;;5089813;28;20052;-68
2022/10/22 01:48:51;;;;;;;5.20;2.47;;;14.00;92.30;;;;;;5095001;28;20054;-65
2022/10/22 01:51:40;;;;;;;6.20;2.67;;;14.00;92.50;;;;;;5093622;28;20050;-67
2022/10/22 01:54:18;;;;;;;5.25;2.33;;;14.00;92.70;;;;;;5091646;28;20048;-67
2022/10/22 01:56:58;;;;;;;4.22;1.95;;;14.00;92.20;;;;;;5089165;28;20053;-66
2022/10/22 01:59:34;;;;;;;3.15;1.77;;;14.10;92.90;;;;;;5102139;28;20510;-67
2022/10/22 02:02:07;;;;;;;3.35;1.73;;;14.10;92.70;;;;;;5082995;28;21308;-65
2022/10/22 02:04:37;;;;;;;2.28;1.20;;;14.10;93.00;;;;;;5090767;28;20131;-66
2022/10/22 02:07:06;;;;;;;;;;;14.10;93.10;;;;;;5086156;28;20126;-65
2022/10/22 02:09:34;;;;;;;2.38;0.93;;;14.10;92.80;;;;;;5091401;28;19924;-67
2022/10/22 02:12:05;;;;;;;2.22;0.80;;;14.20;92.80;;;;;;5092999;28;20097;-66
2022/10/22 02:14:36;;;;;;;2.00;0.90;;;14.20;93.00;;;;;;5093210;28;20054;-66
2022/10/22 02:17:07;;;;;;;3.47;0.93;;;14.20;92.90;;;;;;5092461;28;20043;-65
2022/10/22 02:19:40;;;;;;;2.53;0.80;;;14.20;93.10;;;;;;5092770;28;20468;-66
2022/10/22 02:22:08;;;;;;;2.20;0.80;;;14.20;93.00;;;;;;5097255;28;20052;-66
2022/10/22 02:24:35;;;;;;;2.30;0.93;;;14.20;92.90;;;;;;5097982;28;20040;-66
2022/10/22 02:27:09;;;;;;;3.83;0.93;;;14.20;92.50;;;;;;5090158;28;20119;-67
2022/10/22 02:29:41;;;;;;;4.72;1.02;;;14.20;92.70;;;;;;5100227;28;20114;-66
2022/10/22 02:32:11;;;;;;;5.63;0.80;;;14.20;92.80;;;;;;5094787;27;20059;-66
2022/10/22 02:34:39;;;;;;;1.67;0.75;;;14.20;92.90;;;;;;5095300;28;20043;-66
2022/10/22 02:37:06;;;;;;;2.40;0.70;;;14.10;92.00;;;;;;5093640;28;20047;-66
2022/10/22 02:39:35;;;;;;;3.30;0.80;;;14.10;92.30;;;;;;5095669;28;20044;-64
2022/10/22 02:42:03;;;;;;;4.13;1.80;;;14.10;92.40;;;;;;5098061;27;20126;-67
2022/10/22 02:44:30;;;;;;;2.17;0.70;;;14.20;92.50;;;;;;5098867;28;20490;-66
2022/10/22 02:46:59;;;;;;;3.78;0.80;;;14.20;92.90;;;;;;5095933;28;20044;-67
2022/10/22 02:49:26;;;;;;;3.72;0.80;;;14.10;92.60;;;;;;5095471;28;20925;-65
2022/10/22 02:51:53;;;;;;;4.10;1.05;;;14.10;92.80;;;;;;5096684;28;20047;-66
2022/10/22 02:54:20;;;;;;;3.95;1.05;;;14.20;92.90;;;;;;5091353;28;20063;-65
2022/10/22 02:56:50;;;;;;;3.03;1.02;;;14.20;92.60;;;;;;5099421;28;20123;-66
2022/10/22 02:59:17;;;;;;;3.63;0.90;;;14.10;92.00;;;;;;5095717;28;20072;-64
2022/10/22 03:01:45;;;;;;;3.67;1.30;;;14.10;91.80;;;;;;5093206;28;20567;-67
2022/10/22 03:04:15;;;;;;;3.85;1.30;;;14.10;92.40;;;;;;5098526;28;20064;-65
2022/10/22 03:06:47;;;;;;;3.38;1.20;;;14.10;92.80;;;;;;5096409;28;20071;-65
2022/10/22 03:09:14;;;;;;;3.40;1.27;;;14.20;92.80;;;;;;5097282;28;20143;-66
2022/10/22 03:12:09;;;;;;;2.45;1.10;;;14.20;93.10;;;;;;5092595;28;20055;-66
2022/10/22 03:15:03;;;;;;;4.28;1.13;;;14.20;93.00;;;;;;5080466;27;20039;-66
2022/10/22 03:17:30;;;;;;;2.55;1.00;;;14.20;92.90;;;;;;5059224;28;20071;-65
2022/10/22 03:19:59;;;;;;;5.25;1.15;;;14.10;92.10;;;;;;5099013;27;20052;-67
2022/10/22 03:22:29;;;;;;;3.45;1.10;;;14.20;92.50;;;;;;5117063;28;20044;-67
2022/10/22 03:25:02;;;;;;;2.35;1.23;;;14.20;92.90;;;;;;5106473;28;20210;-66
2022/10/22 03:27:30;;;;;;;2.72;1.10;;;14.20;92.70;;;;;;5095700;28;20083;-67
2022/10/22 03:33:08;;;;;;;3.15;1.13;;;14.20;92.80;;;;;;5074062;28;20405;-66
2022/10/22 03:35:45;;;;;;;2.92;1.10;;;14.20;92.90;;;;;;5095396;28;20062;-66
2022/10/22 03:38:13;;;;;;;3.30;1.10;;;14.20;92.80;;;;;;5096036;28;20131;-65
2022/10/22 03:40:41;;;;;;;2.92;1.13;;;14.20;92.20;;;;;;5093577;28;20127;-66
2022/10/22 03:43:11;;;;;;;2.42;1.10;;;14.20;92.60;;;;;;5095850;27;20060;-66
2022/10/22 03:45:54;;;;;;;;;;;;;;;;;;;;;
2022/10/22 03:51:13;;;;;;;5.68;1.20;;;14.20;92.80;;;;;;5061470;28;20195;-65
2022/10/22 03:53:57;;;;;;;2.97;1.52;;;14.20;93.10;;;;;;5078884;28;20040;-65
2022/10/22 03:56:36;;;;;;;2.45;1.08;;;14.10;93.00;;;;;;5083465;28;20061;-66
2022/10/22 03:59:04;;;;;;;4.28;1.30;;;14.10;92.80;;;;;;5107074;27;20050;-66
2022/10/22 04:01:31;;;;;;;3.70;1.33;;;14.20;92.90;;;;;;5089605;28;20051;-66
2022/10/22 04:03:59;;;;;;;5.78;1.10;;;14.10;92.90;;;;;;5097376;28;20063;-65
2022/10/22 04:06:29;;;;;;;4.38;1.73;;;14.10;93.00;;;;;;5085812;28;20048;-67
2022/10/22 04:08:56;;;;;;;;;;;14.10;92.90;;;;;;5091608;28;20482;-66
2022/10/22 04:11:23;;;;;;;2.83;0.88;;;14.20;92.80;;;;;;5090729;28;19935;-66
2022/10/22 04:13:50;;;;;;;3.97;1.02;;;14.20;92.60;;;;;;5096413;28;20466;-65
2022/10/22 04:16:19;;;;;;;2.88;0.88;;;14.10;92.60;;;;;;5092662;28;20056;-66
2022/10/22 04:18:47;;;;;;;1.38;0.65;;;14.20;92.70;;;;;;5096550;28;20044;-65
2022/10/22 04:21:18;;;;;;;1.73;0.80;;;14.10;92.70;;;;;;5098442;27;20048;-65
2022/10/22 04:23:48;;;;;;;6.63;1.10;;;14.10;92.60;;;;;;5096265;28;20898;-64
2022/10/22 04:26:16;;;;;;;2.35;0.95;;;14.10;92.90;;;;;;5096505;28;20052;-66
2022/10/22 04:28:44;;;;;;;2.85;0.68;;;14.10;93.00;;;;;;5091652;28;20126;-66
2022/10/22 04:31:13;;;;;;;5.05;1.73;;;14.10;92.90;;;;;;5098192;27;20051;-65
2022/10/22 04:33:41;;;;;;;2.60;0.68;;;14.10;92.90;;;;;;5093628;28;20078;-66
2022/10/22 04:36:10;;;;;;;3.10;0.70;;;14.10;92.90;;;;;;5093420;28;20063;-66
2022/10/22 04:38:38;;;;;;;3.17;0.93;;;14.10;92.70;;;;;;5095633;28;20048;-65
2022/10/22 04:41:11;;;;;;;1.52;0.70;;;14.10;92.50;;;;;;5094425;28;20146;-66
2022/10/22 04:43:39;;;;;;;1.58;0.70;;;14.10;92.60;;;;;;5094412;28;20063;-66
2022/10/22 04:46:07;;;;;;;1.98;0.82;;;14.10;92.60;;;;;;5093097;28;20040;-67
2022/10/22 04:48:35;;;;;;;5.88;0.82;;;14.10;92.60;;;;;;5093583;27;20100;-66
2022/10/22 04:51:02;;;;;;;5.85;0.82;;;14.10;92.70;;;;;;5095053;28;20051;-67
2022/10/22 04:53:29;;;;;;;3.17;0.80;;;14.10;92.60;;;;;;5093705;28;20040;-66
2022/10/22 04:56:06;;;;;;;4.05;0.80;;;14.10;92.80;;;;;;5094988;28;20043;-66
2022/10/22 04:58:36;;;;;;;5.50;0.82;;;14.10;92.90;;;;;;5094573;28;20043;-67
2022/10/22 05:01:12;;;;;;;6.72;1.10;;;14.10;93.00;;;;;;5093103;28;20044;-65
2022/10/22 05:03:39;;;;;;;2.13;0.55;;;14.10;93.10;;;;;;5094708;28;20052;-66
2022/10/22 05:06:07;;;;;;;2.10;0.77;;;14.10;93.00;;;;;;5086040;28;20057;-66
2022/10/22 05:08:34;;;;;;;1.75;0.63;;;14.10;92.90;;;;;;5094264;28;20143;-66
2022/10/22 05:11:11;;;;;;;2.33;0.98;;;14.10;92.70;;;;;;5094760;28;20068;-66
2022/10/22 05:13:39;;;;;;;2.35;0.60;;;14.10;92.70;;;;;;5095627;28;20039;-67
2022/10/22 05:16:08;;;;;;;1.63;0.80;;;14.10;92.50;;;;;;5094086;28;20550;-66
2022/10/22 05:18:36;;;;;;;2.38;0.90;;;14.10;92.30;;;;;;5093609;28;20052;-66
2022/10/22 05:21:04;;;;;;;4.15;1.13;;;14.10;92.40;;;;;;5093959;28;20382;-62
2022/10/22 05:23:31;;;;;;;2.22;1.00;;;14.10;92.60;;;;;;5093943;28;20097;-66
2022/10/22 05:26:02;;;;;;;4.78;1.00;;;14.10;92.80;;;;;;5094101;28;20052;-66
2022/10/22 05:28:29;;;;;;;2.55;0.73;;;14.10;92.90;;;;;;5093468;28;20048;-66
2022/10/22 05:30:59;;;;;;;4.07;1.00;;;14.10;92.90;;;;;;5094469;28;20044;-66
2022/10/22 05:33:27;;;;;;;1.95;0.93;;;14.10;92.80;;;;;;5079188;28;20044;-65
2022/10/22 05:35:54;;;;;;;5.05;1.00;;;14.10;93.00;;;;;;5092863;28;20044;-65
2022/10/22 05:38:21;;;;;;;1.60;0.90;;;14.10;93.00;;;;;;5093123;28;20050;-65
2022/10/22 05:40:48;;;;;;;1.50;0.60;;;14.10;93.10;;;;;;5093740;28;20039;-65
2022/10/22 05:43:15;;;;;;;3.38;0.95;;;14.10;92.70;;;;;;5095262;28;20485;-64
2022/10/22 05:45:43;;;;;;;5.97;0.98;;;14.10;92.90;;;;;;5091704;28;20044;-66
2022/10/22 05:48:11;;;;;;;2.53;0.77;;;14.10;93.10;;;;;;5095459;28;20058;-66
2022/10/22 05:50:38;;;;;;;2.00;0.70;;;14.10;93.10;;;;;;5094498;28;20047;-65
2022/10/22 05:53:06;;;;;;;2.88;0.80;;;14.10;93.10;;;;;;5091743;28;20048;-66
2022/10/22 05:55:37;;;;;;;1.58;0.80;;;14.10;93.10;;;;;;5099244;28;20050;-65
2022/10/22 05:58:05;;;;;;;4.15;0.80;;;14.10;93.00;;;;;;5094980;28;20180;-64
2022/10/22 06:00:33;;;;;;;3.10;0.80;;;14.10;92.80;;;;;;5091435;28;20382;-69
2022/10/22 06:03:00;;;;;;;3.15;0.90;;;14.10;92.80;;;;;;5102865;28;20067;-66
2022/10/22 06:05:29;;;;;;;2.97;1.08;;;14.10;92.90;;;;;;5118896;28;20051;-65
2022/10/22 06:07:58;;;;;;;2.30;0.90;;;14.10;92.90;;;;;;5088893;28;20122;-66
2022/10/22 06:10:25;;;;;;;2.38;0.80;;;14.10;92.70;;;;;;5099961;27;20067;-66
2022/10/22 06:12:52;;;;;;;3.05;0.90;;;14.10;92.70;;;;;;5101046;27;20131;-66
2022/10/22 06:15:20;;;;;;;2.33;0.90;;;14.10;93.00;;;;;;5099319;28;20408;-65
2022/10/22 06:17:47;;;;;;;2.38;0.80;;;14.10;93.20;;;;;;5102794;28;20127;-66
2022/10/22 06:20:15;;;;;;;6.55;1.05;;;14.10;93.20;;;;;;5098639;28;20075;-65
2022/10/22 06:22:43;;;;;;;6.20;0.73;;;14.10;93.20;;;;;;5094293;28;20052;-65
2022/10/22 06:25:11;;;;;;;3.75;1.05;;;14.10;93.10;;;;;;5097423;28;20078;-64
2022/10/22 06:27:38;;;;;;;4.78;1.27;;;14.10;93.20;;;;;;5091497;28;20553;-66
2022/10/22 06:30:06;;;;;;;3.03;1.00;;;14.10;93.20;;;;;;5095070;27;20066;-65
2022/10/22 06:32:33;;;;;;;1.65;1.00;;;14.10;93.30;;;;;;5096899;28;20070;-66
2022/10/22 06:35:00;;;;;;;4.57;1.45;;;14.20;93.10;;;;;;5096634;28;20048;-65
2022/10/22 06:37:27;;;;;;;4.50;1.08;;;14.20;93.10;;;;;;5096029;28;20054;-64
2022/10/22 06:39:56;;;;;;;3.13;1.20;;;14.20;93.20;;;;;;5094710;27;20040;-65
2022/10/22 06:42:22;;;;;;;2.83;1.10;;;14.20;93.10;;;;;;5099472;28;20054;-64
2022/10/22 06:44:49;;;;;;;4.05;1.05;;;14.20;92.90;;;;;;5095891;27;20040;-64
2022/10/22 06:47:18;;;;;;;1.85;1.10;;;14.20;93.10;;;;;;5095723;27;20044;-65
2022/10/22 06:49:45;;;;;;;3.63;1.05;;;14.30;93.20;;;;;;5097615;28;20051;-66
2022/10/22 06:52:13;;;;;;;3.10;1.15;;;14.20;93.20;;;;;;5096559;28;20044;-65
2022/10/22 06:54:40;;;;;;;3.90;1.52;;;14.20;93.10;;;;;;5097844;28;20048;-65
2022/10/22 06:57:08;;;;;;;3.85;1.33;;;14.30;93.10;;;;;;5094559;28;20059;-66
2022/10/22 06:59:35;;;;;;;4.43;1.30;;;14.30;93.10;;;;;;5092016;28;20101;-65
2022/10/22 07:02:02;;;;;;;3.35;1.45;;;14.30;93.10;;;;;;5095461;28;20370;-64
2022/10/22 07:04:29;;;;;;;4.07;1.40;;;14.30;93.10;;;;;;5098977;28;20051;-65
2022/10/22 07:06:56;;;;;;;4.20;1.45;;;14.30;93.20;;;;;;5097167;27;20047;-66
2022/10/22 07:09:23;;;;;;;3.35;1.30;;;14.30;93.20;;;;;;5098627;28;20081;-66
2022/10/22 07:11:50;;;;;;;4.15;1.30;;;14.30;93.00;;;;;;5093793;28;20048;-66
2022/10/22 07:14:19;;;;;;;3.50;1.42;;;14.30;93.10;;;;;;5092903;28;20063;-65
2022/10/22 07:16:46;;;;;;;4.32;1.70;;;14.30;93.10;;;;;;5094595;28;20459;-65
2022/10/22 07:19:13;;;;;;;2.85;1.10;;;14.30;93.00;;;;;;5096006;28;20048;-66
2022/10/22 07:21:41;;;;;;;4.55;1.58;;;14.30;93.00;;;;;;5095704;28;20102;-65
2022/10/22 07:24:08;;;;;;;2.22;1.25;;;14.30;93.10;;;;;;5092273;28;20047;-66
2022/10/22 07:26:35;;;;;;;3.65;1.40;;;14.40;93.10;;;;;;5096447;28;20512;-65
2022/10/22 07:29:04;;;;;;;3.53;1.45;;;14.40;93.10;;;;;;5098613;28;20044;-64
2022/10/22 07:31:32;;;;;;;5.95;1.27;;;14.40;93.00;;;;;;5093622;28;20434;-65
2022/10/22 07:33:59;;;;;;;2.80;1.27;;;14.40;93.00;;;;;;5097526;28;20052;-64
2022/10/22 07:36:26;;;;;;;4.28;1.20;;;14.40;92.90;;;;;;5091590;28;20043;-65
2022/10/22 07:38:56;;;;;;;3.65;1.60;;;14.40;93.00;;;;;;5096253;28;20109;-66
2022/10/22 07:41:23;;;;;;;3.00;1.10;;;14.40;93.10;;;;;;5097960;28;20499;-66
2022/10/22 07:43:51;;;;;;;4.00;1.27;;;14.40;93.00;;;;;;5096561;28;20093;-64
2022/10/22 07:46:18;;;;;;;7.85;1.50;;;14.40;93.00;;;;;;5095427;27;20047;-66
2022/10/22 07:48:46;;;;;;;4.40;1.50;;;14.40;93.00;;;;;;5096763;27;20120;-66
2022/10/22 07:51:13;;;;;;;5.57;1.27;;;14.40;93.00;;;;;;5097202;28;20595;-66
2022/10/22 07:53:43;;;;;;;2.95;1.13;;;14.40;92.80;;;;;;5098741;28;20142;-65
2022/10/22 07:56:10;;;;;;;;;;;14.40;91.80;;;;;;5096007;28;20060;-65
2022/10/22 07:58:37;;;;;;;3.10;1.10;;;14.40;92.30;;;;;;5096988;28;19963;-66
2022/10/22 08:01:05;;;;;;;3.00;0.80;;;14.50;92.60;;;;;;5096237;28;20046;-65
2022/10/22 08:03:33;;;;;;;1.98;0.77;;;14.60;92.70;;;;;;5093755;28;20079;-67
2022/10/22 08:06:01;;;;;;;1.77;0.80;;;14.60;92.70;;;;;;5096194;28;20058;-66
2022/10/22 08:08:29;;;;;;;2.65;0.90;;;14.60;92.70;;;;;;5092769;28;20401;-66
2022/10/22 08:10:59;;;;;;;1.83;0.77;;;14.70;92.60;;;;;;5093170;28;20387;-65
2022/10/22 08:13:26;;;;;;;7.03;1.07;;;14.60;92.40;;;;;;5096119;27;20044;-66
2022/10/22 08:15:53;;;;;;;3.55;1.30;;;14.70;92.70;;;;;;5092198;28;20043;-65
2022/10/22 08:18:20;;;;;;;3.53;0.95;;;14.80;92.80;;;;;;5095822;28;20493;-65
2022/10/22 08:20:47;;;;;;;2.78;1.10;;;14.80;92.60;;;;;;5083392;28;20048;-65
2022/10/22 08:23:16;;;;;;;3.58;1.20;;;14.80;92.50;;;;;;5094133;28;20048;-64
2022/10/22 08:25:43;;;;;;;5.10;1.20;;;14.90;92.30;;;;;;5094478;28;20040;-65
2022/10/22 08:28:10;;;;;;;1.75;0.88;;;14.90;92.50;;;;;;5096635;28;20055;-65
2022/10/22 08:30:39;;;;;;;2.67;1.00;;;14.90;92.30;;;;;;5095932;28;20044;-65
2022/10/22 08:33:06;;;;;;;1.92;1.00;;;15.00;92.30;;;;;;5095359;28;20525;-66
2022/10/22 08:35:33;;;;;;;3.70;1.10;;;15.00;92.40;;;;;;5095642;28;20054;-65
2022/10/22 08:38:00;;;;;;;2.85;1.35;;;15.00;92.30;;;;;;5095214;27;20071;-66
2022/10/22 08:40:33;;;;;;;2.40;0.98;;;15.10;92.20;;;;;;5091078;28;20047;-75
2022/10/22 08:43:19;;;;;;;2.42;1.02;;;15.10;92.10;;;;;;5094405;28;20122;-69
2022/10/22 08:45:56;;;;;;;2.45;0.98;;;15.10;92.20;;;;;;5095819;28;20044;-69
2022/10/22 08:48:37;;;;;;;3.30;1.20;;;15.10;91.90;;;;;;5114225;28;20108;-67
2022/10/22 08:51:04;;;;;;;3.17;1.10;;;15.10;92.00;;;;;;5103881;28;20069;-66
2022/10/22 08:53:41;;;;;;;2.35;0.90;;;15.10;92.00;;;;;;5095989;28;20469;-65
2022/10/22 08:56:10;;;;;;;2.58;1.10;;;15.10;91.70;;;;;;5095936;28;20044;-65
2022/10/22 08:58:44;;;;;;;5.57;1.58;;;15.10;91.70;;;;;;5094274;28;20043;-66
2022/10/22 09:01:13;;;;;;;2.75;1.10;;;15.10;91.60;;;;;;5092603;28;20093;-66
2022/10/22 09:03:48;;;;;;;4.57;1.85;;;15.10;91.40;;;;;;5093436;28;20119;-66
2022/10/22 09:06:19;;;;;;;2.90;1.52;;;15.10;91.40;;;;;;5093477;28;20047;-66
2022/10/22 09:08:47;;;;;;;4.07;1.20;;;15.20;91.40;;;;;;5096945;27;20047;-64
2022/10/22 09:11:23;;;;;;;5.03;1.90;;;15.10;91.40;;;;;;5097745;28;20054;-66
2022/10/22 09:13:52;;;;;;;4.88;2.05;;;15.20;91.50;;;;;;5087716;28;20075;-66
2022/10/22 09:16:24;;;;;;;6.57;2.42;;;15.30;91.40;;;;;;5094104;28;20048;-66
2022/10/22 09:19:01;;;;;;;5.68;1.98;;;15.40;90.60;;;;;;5091299;28;20064;-65
2022/10/22 09:21:38;;;;;;;5.10;2.05;;;15.50;90.60;;;;;;5094456;28;20130;-66
2022/10/22 09:24:11;;;;;;;3.67;1.90;;;15.50;90.60;;;;;;5090256;28;20147;-65
2022/10/22 09:26:41;;;;;;;6.38;1.73;;;15.60;90.20;;;;;;5097831;28;20057;-66
2022/10/22 09:29:18;;;;;;;5.63;1.65;;;15.60;89.80;;;;;;5098842;28;20079;-66
2022/10/22 09:31:45;;;;;;;2.95;1.20;;;15.60;89.70;;;;;;5097346;27;20499;-65
2022/10/22 09:34:14;;;;;;;2.47;1.00;;;15.70;89.60;;;;;;5097172;28;20044;-65
2022/10/22 09:36:41;;;;;;;2.75;1.17;;;15.80;89.30;;;;;;5101664;28;20118;-65
2022/10/22 09:39:22;;;;;;;3.45;1.30;;;15.80;89.20;;;;;;5097165;28;20054;-65
2022/10/22 09:41:51;;;;;;;2.10;0.90;;;15.90;89.10;;;;;;5097331;28;20105;-65
2022/10/22 09:44:18;;;;;;;2.67;0.90;;;15.90;88.80;;;;;;5098385;28;20140;-65
2022/10/22 09:46:45;;;;;;;1.83;0.80;;;16.00;88.90;;;;;;5095133;28;20139;-66
2022/10/22 09:49:15;;;;;;;2.03;0.82;;;16.10;88.80;;;;;;5097349;28;20090;-67
2022/10/22 09:51:48;;;;;;;;;;;16.20;88.50;;;;;;5098405;28;20135;-66
2022/10/22 09:54:18;;;;;;;3.10;1.00;;;16.20;88.20;;;;;;5100545;28;19998;-67
2022/10/22 09:56:52;;;;;;;;;;;16.30;87.80;;;;;;5093443;28;20393;-67
2022/10/22 09:59:28;;;;;;;4.85;1.27;;;16.40;87.80;;;;;;5098641;28;20293;-66
2022/10/22 10:02:04;;;;;;;3.30;1.45;;;16.50;87.40;;;;;;5097990;28;20048;-65
2022/10/22 10:04:35;;;;;;;5.20;2.25;;;16.50;87.30;;;;;;5097846;28;20054;-67
2022/10/22 10:07:13;;;;;;;6.30;3.00;;;16.60;87.10;;;;;;5100494;28;20044;-67
2022/10/22 10:09:40;;;;;;;10.68;5.18;;;16.70;87.20;;;;;;5097168;28;20447;-66
2022/10/22 10:12:20;;;;;;;9.20;4.35;;;16.70;86.90;;;;;;5098049;28;20050;-68
2022/10/22 10:14:56;;;;;;;8.18;2.67;;;16.70;86.80;;;;;;5097082;28;20117;-67
2022/10/22 10:17:30;;;;;;;3.65;1.58;;;16.60;86.40;;;;;;5097122;28;20123;-66
2022/10/22 10:20:10;;;;;;;4.85;1.40;;;16.70;86.50;;;;;;5097257;28;20586;-68
2022/10/22 10:22:46;;;;;;;5.25;0.90;;;16.60;86.40;;;;;;5092729;28;20140;-67
2022/10/22 10:25:35;;;;;;;2.75;0.70;;;16.70;86.30;;;;;;5095366;28;20051;-67
2022/10/22 10:28:17;;;;;;;3.05;0.90;;;16.80;86.40;;;;;;5100940;28;20132;-67
2022/10/22 10:30:51;;;;;;;2.63;0.80;;;16.80;85.80;;;;;;5097776;28;20138;-68
2022/10/22 10:33:30;;;;;;;1.77;0.70;;;16.90;85.40;;;;;;5096837;28;20078;-67
2022/10/22 10:36:04;;;;;;;3.00;0.75;;;16.90;85.40;;;;;;5099500;28;20068;-67
2022/10/22 10:38:54;;;;;;;1.42;0.60;;;17.00;85.20;;;;;;5098693;28;20129;-68
2022/10/22 10:41:32;;;;;;;4.57;0.90;;;17.10;85.30;;;;;;5097299;27;20055;-68
2022/10/22 10:44:31;;;;;;;2.60;0.85;;;17.20;85.00;;;;;;5097674;28;20044;-68
2022/10/22 10:47:08;;;;;;;4.60;0.88;;;17.30;84.30;;;;;;5096807;28;20068;-68
2022/10/22 10:49:36;;;;;;;1.70;0.60;;;17.40;84.50;;;;;;5098792;27;20096;-68
2022/10/22 10:52:10;;;;;;;0.95;0.50;;;17.30;84.50;;;;;;5094678;28;20051;-68
2022/10/22 10:54:47;;;;;;;1.83;0.70;;;17.40;84.20;;;;;;5096522;28;20477;-68
2022/10/22 10:57:24;;;;;;;3.13;1.20;;;17.30;83.90;;;;;;5097694;28;20162;-71
2022/10/22 11:00:05;;;;;;;6.97;2.83;;;17.20;84.10;;;;;;5091749;28;20420;-68
2022/10/22 11:03:05;;;;;;;7.47;3.78;;;17.20;84.20;;;;;;5094117;28;20047;-68
2022/10/22 11:05:39;;;;;;;10.55;4.70;;;17.10;84.10;;;;;;5097609;28;20055;-68
2022/10/22 11:08:13;;;;;;;8.50;4.03;;;17.10;84.20;;;;;;5097951;28;20052;-67
2022/10/22 11:10:45;;;;;;;9.48;3.97;;;17.10;84.20;;;;;;5097291;28;20067;-69
2022/10/22 11:13:18;;;;;;;8.13;2.90;;;17.10;84.20;;;;;;5099433;28;20051;-68
2022/10/22 11:15:51;;;;;;;4.15;1.73;;;17.10;84.20;;;;;;5095838;28;20136;-69
2022/10/22 11:18:24;;;;;;;3.70;1.52;;;17.10;84.10;;;;;;5092945;28;20052;-69
2022/10/22 11:21:03;;;;;;;6.63;1.70;;;17.10;84.10;;;;;;5098228;28;20134;-69
2022/10/22 11:23:36;;;;;;;4.13;1.65;;;17.10;83.90;;;;;;5095940;28;20054;-69
2022/10/22 11:26:06;;;;;;;3.35;1.30;;;17.10;83.90;;;;;;5095028;28;20486;-68
2022/10/22 11:28:37;;;;;;;2.78;1.30;;;17.20;83.80;;;;;;5097899;28;20486;-74
2022/10/22 11:31:13;;;;;;;4.15;1.30;;;17.20;83.80;;;;;;5116737;28;20047;-67
2022/10/22 11:33:48;;;;;;;4.03;1.20;;;17.20;83.70;;;;;;5110639;28;20489;-68
2022/10/22 11:36:18;;;;;;;4.85;1.30;;;17.20;83.80;;;;;;5098446;28;20108;-69
2022/10/22 11:38:45;;;;;;;4.20;1.50;;;17.30;83.70;;;;;;5094620;27;20074;-68
2022/10/22 11:41:16;;;;;;;4.00;1.33;;;17.30;83.50;;;;;;5095463;28;20089;-69
2022/10/22 11:43:57;;;;;;;4.30;1.88;;;17.30;83.50;;;;;;5095285;28;20047;-68
2022/10/22 11:46:33;;;;;;;3.85;1.55;;;17.30;83.30;;;;;;5096602;27;20044;-70
2022/10/22 11:49:04;;;;;;;4.65;1.45;;;17.30;83.40;;;;;;5097127;28;20447;-71
2022/10/22 11:51:37;;;;;;;2.83;1.13;;;17.30;83.50;;;;;;5092968;28;20493;-69
2022/10/22 11:54:29;;;;;;;2.15;0.88;;;17.30;83.40;;;;;;5095120;28;20047;-68
2022/10/22 11:57:12;;;;;;;2.10;0.80;;;17.40;83.60;;;;;;5098327;28;20044;-67
2022/10/22 11:59:40;;;;;;;1.92;0.70;;;17.30;83.40;;;;;;5096493;28;20044;-68
2022/10/22 12:05:34;;;;;;;4.57;1.25;;;17.30;83.30;;;;;;5117098;27;20186;-70
2022/10/22 12:08:13;;;;;;;4.75;2.15;;;17.30;83.60;;;;;;5083082;28;20051;-68
2022/10/22 12:10:57;;;;;;;5.38;2.50;;;17.30;83.50;;;;;;5081131;28;20049;-70
2022/10/22 12:13:27;;;;;;;6.93;2.80;;;17.30;83.30;;;;;;5082453;28;20055;-69
2022/10/22 12:15:58;;;;;;;7.22;2.88;;;17.30;83.10;;;;;;5079293;28;20071;-69
2022/10/22 12:18:31;;;;;;;9.65;3.80;;;17.30;83.00;;;;;;5082767;27;20040;-70
2022/10/22 12:21:01;;;;;;;8.68;3.90;;;17.20;83.90;;;;;;5079885;28;20041;-69
2022/10/22 12:23:34;;;;;;;6.07;3.03;;;17.30;83.30;;;;;;5077358;28;20052;-69
2022/10/22 12:26:04;;;;;;;6.55;2.60;;;17.20;83.30;;;;;;5079550;28;20058;-69
2022/10/22 12:28:39;;;;;;;6.47;2.63;;;17.20;83.30;;;;;;5083012;28;20056;-70
2022/10/22 12:31:06;;;;;;;8.77;2.17;;;17.30;83.50;;;;;;5083420;28;20050;-69
2022/10/22 12:33:34;;;;;;;6.97;2.63;;;17.30;83.20;;;;;;5083480;28;20047;-69
2022/10/22 12:36:05;;;;;;;7.13;2.33;;;17.40;83.50;;;;;;5084360;28;20434;-71
2022/10/22 12:38:32;;;;;;;6.72;2.40;;;17.40;83.60;;;;;;5082911;28;20569;-70
2022/10/22 12:40:59;;;;;;;5.70;2.00;;;17.40;83.30;;;;;;5084060;28;20342;-69
2022/10/22 12:43:28;;;;;;;6.60;1.60;;;17.60;83.00;;;;;;5083285;28;20107;-71
2022/10/22 12:45:57;;;;;;;4.80;1.50;;;17.60;82.70;;;;;;5082201;27;20120;-70
2022/10/22 12:48:26;;;;;;;3.92;1.63;;;17.60;82.20;;;;;;5066359;27;20466;-71
2022/10/22 12:50:55;;;;;;;3.85;1.20;;;17.70;82.20;;;;;;5097026;27;20098;-71
2022/10/22 12:53:27;;;;;;;3.95;1.27;;;17.70;81.50;;;;;;5081247;27;20543;-69
2022/10/22 12:55:56;;;;;;;5.28;1.80;;;17.70;81.50;;;;;;5078979;27;20048;-69
2022/10/22 12:58:27;;;;;;;3.93;1.67;;;17.70;81.70;;;;;;5072768;27;24007;-69
2022/10/22 13:00:59;;;;;;;4.93;2.10;;;17.70;81.70;;;;;;5077922;27;20054;-69
2022/10/22 13:03:30;;;;;;;6.22;2.38;;;17.70;81.50;;;;;;5080222;27;20131;-70
2022/10/22 13:05:57;;;;;;;6.38;3.08;;;17.80;81.60;;;;;;5081319;27;20169;-70
2022/10/22 13:08:28;;;;;;;6.90;2.58;;;17.70;81.70;;;;;;5081150;27;20131;-71
2022/10/22 13:10:55;;;;;;;6.63;2.70;;;17.80;81.60;;;;;;5081798;28;20065;-70
2022/10/22 13:13:31;;;;;;;5.78;2.63;;;17.80;81.30;;;;;;5079406;27;20052;-71
2022/10/22 13:16:14;;;;;;;4.78;2.00;;;17.70;81.20;;;;;;5065518;28;20051;-69
2022/10/22 13:18:42;;;;;;;5.35;2.20;;;17.80;81.10;;;;;;5052842;28;20052;-70
2022/10/22 13:21:23;;;;;;;4.72;2.05;;;17.80;81.20;;;;;;5047434;28;20051;-71
2022/10/22 13:23:58;;;;;;;4.07;1.85;;;17.70;81.40;;;;;;5046665;28;20106;-70